Rhodhiss, North Carolina
Current Conditions -  °F | °C
As of 10:53 AM on Saturday 22 Nov 2014 (Local Time) from KHKY Reporting Station
Clear Clear  
Wind Chill: 38°   Ceiling: Unl
Heat Index: 42°   Visibility: 10mi
Dew Point: 13°   Wind: 6mph
Humidity: 31%   Direction: 200°SSW
Pressure: 30.51"   Gusts: NA
Location:  35.77°N, 81.43°W
Report Text: KHKY 221553Z AUTO 20005KT 10SM CLR 06/M11 A3051 RMK AO2 SLP327 T00561106
Loading
Personal Weather Stations






























Interactive Weather Map New forecast layout! Learn more

10-Day Weather Forecast

Advertisements
Track Severe Weather on mobile